Kapitan Dranitsyn — UCJP — position and weather

sailwx.info

Track history (hours):
 
Tides and Currents Weather Stations Pressure Air Temp Water Temp Dewpoint Dewpoint Depression Visibility Wind Speed Wind Dir Waves Ship Positions

Oceanographic research ship Kapitan Dranitsyn (Russia)

Detailed information on ship capabilities available from ARCUS's ALIAS (Arctic Logistics Information and Support) project.

Last reported at 2014-Jul-15 05:28 UTC. Time now 2014-Oct-01 04:00 UTC.
Position N 69°10' E 033°31'.
Warning: this ship's position is months out of date.

Length 132 m; beam 27 m.

Type: Other ship. MMSI: 273138300.

Date/timePositionNaut miles runAvg speedWind from/ knotsBaromVisibWave heightAir tempDewpointWater temp
2014-Jul-15 05:28N 69°10' E 033°31'8 8.6
2014-Jul-15 04:33N 69°18' E 033°31'9 8.6
2014-Jul-15 03:33N 69°27' E 033°33'9 9.1
2014-Jul-15 02:33N 69°36' E 033°32'  
2014-Jul-09 07:20N 58°26' E 005°11'1010.4
2014-Jul-09 06:21N 58°20' E 005°25'910.8
2014-Jul-09 05:33N 58°14' E 005°38'12310.2
2014-Jul-08 17:32N 57°48' E 009°24'1410.7
2014-Jul-08 16:12N 57°49' E 009°51'910.7
2014-Jul-08 15:21N 57°49' E 010°08'810.5
2014-Jul-08 14:33N 57°49' E 010°23'1111.2
2014-Jul-08 13:33N 57°49' E 010°44'1313.2
2014-Jul-08 12:33N 57°40' E 011°03'1312.8
2014-Jul-08 11:33N 57°31' E 011°20'1313.3
2014-Jul-08 10:33N 57°19' E 011°33'1514.7
2014-Jul-08 09:33N 57°06' E 011°41'1515.0
2014-Jul-08 08:33N 56°51' E 011°50'1212.3
2014-Jul-08 07:34N 56°39' E 011°48'1312.9
2014-Jul-08 06:33N 56°28' E 011°36'1313.6
2014-Jul-08 05:33N 56°17' E 011°23'1212.1
2014-Jul-08 04:33N 56°07' E 011°10'1212.1
2014-Jul-08 03:33N 55°56' E 010°59'1312.5
2014-Jul-08 02:33N 55°45' E 010°49'1313.0
2014-Jul-08 01:31N 55°32' E 010°52'4611.5
2014-Jul-07 21:28N 54°46' E 010°53'1111.7
2014-Jul-07 20:33N 54°38' E 011°05'1413.6
2014-Jul-07 19:33N 54°32' E 011°26'1312.8
2014-Jul-07 18:33N 54°26' E 011°46'1312.6
2014-Jul-07 17:33N 54°26' E 012°08'1412.4
2014-Jul-07 16:27N 54°38' E 012°19'2311.5
2014-Jul-07 14:29N 54°50' E 012°53'2010.1
2014-Jul-07 12:31N 54°56' E 013°26'9 9.7
2014-Jul-07 11:33N 54°59' E 013°41'1010.1
2014-Jul-07 10:31N 55°03' E 013°58'9 9.5
2014-Jul-07 09:33N 55°08' E 014°11'1010.3
2014-Jul-07 08:33N 55°17' E 014°21'1010.6
2014-Jul-07 07:33N 55°25' E 014°33'1010.3
2014-Jul-07 06:33N 55°30' E 014°48'1010.4
2014-Jul-07 05:34N 55°35' E 015°05'1010.5
2014-Jul-07 04:33N 55°39' E 015°22'1110.5
2014-Jul-07 03:33N 55°41' E 015°40'2210.6
2014-Jul-07 01:27N 55°47' E 016°18'910.6
2014-Jul-07 00:33N 55°50' E 016°35'1110.6
2014-Jul-06 23:30N 55°52' E 016°54'1010.7
2014-Jul-06 22:33N 55°55' E 017°11'1010.5
2014-Jul-06 21:33N 55°58' E 017°29'1010.5
2014-Jul-06 20:33N 56°02' E 017°46'1110.6
2014-Jul-06 19:32N 56°07' E 018°04'1010.6
2014-Jul-06 18:33N 56°13' E 018°19'1110.6
2014-Jul-06 17:33N 56°18' E 018°36'2310.2
2014-Jul-06 15:17N 56°37' E 019°00'810.4
2014-Jul-06 14:33N 56°44' E 019°06'19810.4
2014-Jul-05 19:33N 59°30' E 022°30'1010.2
2014-Jul-05 18:33N 59°33' E 022°49'1110.5
2014-Jul-05 17:33N 59°36' E 023°09'1110.5
2014-Jul-05 16:33N 59°39' E 023°29'1110.7
2014-Jul-05 15:33N 59°42' E 023°50'1110.7
2014-Jul-05 14:33N 59°45' E 024°10'1110.7
2014-Jul-05 13:33N 59°47' E 024°31'1110.6
2014-Jul-05 12:33N 59°50' E 024°51'1110.6
2014-Jul-05 11:33N 59°52' E 025°12'1010.5
2014-Jul-05 10:33N 59°54' E 025°32'1010.2
2014-Jul-05 09:33N 59°55' E 025°52'1010.0
2014-Jul-05 08:33N 59°58' E 026°12'10 9.9
2014-Jul-05 07:33N 60°01' E 026°30'10 9.9
2014-Jul-05 06:33N 60°01' E 026°50'9 9.1
2014-Jul-05 05:33N 60°01' E 027°08'  
Track history (hours):
 
Tides and Currents Weather Stations Pressure Air Temp Water Temp Dewpoint Dewpoint Depression Visibility Wind Speed Wind Dir Waves Ship Positions

Oceanographic research ship Kapitan Dranitsyn (Russia)

Detailed information on ship capabilities available from ARCUS's ALIAS (Arctic Logistics Information and Support) project.

Last reported at 2014-Jul-15 05:28 UTC. Time now 2014-Oct-01 04:00 UTC.
Position N 69°10' E 033°31'.
Warning: this ship's position is months out of date.

Length 132 m; beam 27 m.

Type: Other ship. MMSI: 273138300.

Date/timePositionNaut miles runAvg speedWind from/ knotsBaromVisibWave heightAir tempDewpointWater temp
2014-Jul-15 05:28N 69°10' E 033°31'8 8.6
2014-Jul-15 04:33N 69°18' E 033°31'9 8.6
2014-Jul-15 03:33N 69°27' E 033°33'9 9.1
2014-Jul-15 02:33N 69°36' E 033°32'  
2014-Jul-09 07:20N 58°26' E 005°11'1010.4
2014-Jul-09 06:21N 58°20' E 005°25'910.8
2014-Jul-09 05:33N 58°14' E 005°38'12310.2
2014-Jul-08 17:32N 57°48' E 009°24'1410.7
2014-Jul-08 16:12N 57°49' E 009°51'910.7
2014-Jul-08 15:21N 57°49' E 010°08'810.5
2014-Jul-08 14:33N 57°49' E 010°23'1111.2
2014-Jul-08 13:33N 57°49' E 010°44'1313.2
2014-Jul-08 12:33N 57°40' E 011°03'1312.8
2014-Jul-08 11:33N 57°31' E 011°20'1313.3
2014-Jul-08 10:33N 57°19' E 011°33'1514.7
2014-Jul-08 09:33N 57°06' E 011°41'1515.0
2014-Jul-08 08:33N 56°51' E 011°50'1212.3
2014-Jul-08 07:34N 56°39' E 011°48'1312.9
2014-Jul-08 06:33N 56°28' E 011°36'1313.6
2014-Jul-08 05:33N 56°17' E 011°23'1212.1
2014-Jul-08 04:33N 56°07' E 011°10'1212.1
2014-Jul-08 03:33N 55°56' E 010°59'1312.5
2014-Jul-08 02:33N 55°45' E 010°49'1313.0
2014-Jul-08 01:31N 55°32' E 010°52'4611.5
2014-Jul-07 21:28N 54°46' E 010°53'1111.7
2014-Jul-07 20:33N 54°38' E 011°05'1413.6
2014-Jul-07 19:33N 54°32' E 011°26'1312.8
2014-Jul-07 18:33N 54°26' E 011°46'1312.6
2014-Jul-07 17:33N 54°26' E 012°08'1412.4
2014-Jul-07 16:27N 54°38' E 012°19'2311.5
2014-Jul-07 14:29N 54°50' E 012°53'2010.1
2014-Jul-07 12:31N 54°56' E 013°26'9 9.7
2014-Jul-07 11:33N 54°59' E 013°41'1010.1
2014-Jul-07 10:31N 55°03' E 013°58'9 9.5
2014-Jul-07 09:33N 55°08' E 014°11'1010.3
2014-Jul-07 08:33N 55°17' E 014°21'1010.6
2014-Jul-07 07:33N 55°25' E 014°33'1010.3
2014-Jul-07 06:33N 55°30' E 014°48'1010.4
2014-Jul-07 05:34N 55°35' E 015°05'1010.5
2014-Jul-07 04:33N 55°39' E 015°22'1110.5
2014-Jul-07 03:33N 55°41' E 015°40'2210.6
2014-Jul-07 01:27N 55°47' E 016°18'910.6
2014-Jul-07 00:33N 55°50' E 016°35'1110.6
2014-Jul-06 23:30N 55°52' E 016°54'1010.7
2014-Jul-06 22:33N 55°55' E 017°11'1010.5
2014-Jul-06 21:33N 55°58' E 017°29'1010.5
2014-Jul-06 20:33N 56°02' E 017°46'1110.6
2014-Jul-06 19:32N 56°07' E 018°04'1010.6
2014-Jul-06 18:33N 56°13' E 018°19'1110.6
2014-Jul-06 17:33N 56°18' E 018°36'2310.2
2014-Jul-06 15:17N 56°37' E 019°00'810.4
2014-Jul-06 14:33N 56°44' E 019°06'19810.4
2014-Jul-05 19:33N 59°30' E 022°30'1010.2
2014-Jul-05 18:33N 59°33' E 022°49'1110.5
2014-Jul-05 17:33N 59°36' E 023°09'1110.5
2014-Jul-05 16:33N 59°39' E 023°29'1110.7
2014-Jul-05 15:33N 59°42' E 023°50'1110.7
2014-Jul-05 14:33N 59°45' E 024°10'1110.7
2014-Jul-05 13:33N 59°47' E 024°31'1110.6
2014-Jul-05 12:33N 59°50' E 024°51'1110.6
2014-Jul-05 11:33N 59°52' E 025°12'1010.5
2014-Jul-05 10:33N 59°54' E 025°32'1010.2
2014-Jul-05 09:33N 59°55' E 025°52'1010.0
2014-Jul-05 08:33N 59°58' E 026°12'10 9.9
2014-Jul-05 07:33N 60°01' E 026°30'10 9.9
2014-Jul-05 06:33N 60°01' E 026°50'9 9.1
2014-Jul-05 05:33N 60°01' E 027°08'  

Dump ship's entire track history